createdAt,value
2019-01-11T06:55:07.530Z,264.00
2019-01-11T06:56:07.523Z,264.00
2019-01-11T06:57:07.502Z,264.00
2019-01-11T06:58:07.506Z,264.00
2019-01-11T06:59:07.476Z,264.00
2019-01-11T07:00:07.479Z,264.00
2019-01-11T07:01:07.447Z,264.00
2019-01-11T07:02:07.458Z,260.00
2019-01-11T07:03:09.102Z,260.00
2019-01-11T07:04:07.452Z,260.00
2019-01-11T07:05:07.410Z,260.00
2019-01-11T07:06:07.554Z,260.00
2019-01-11T07:07:07.389Z,260.00
2019-01-11T07:08:07.377Z,264.00
2019-01-11T07:09:07.386Z,260.00
2019-01-11T07:10:07.352Z,260.00
2019-01-11T07:11:07.434Z,260.00
2019-01-11T07:12:07.344Z,260.00
2019-01-11T07:13:07.328Z,260.00
2019-01-11T07:14:07.326Z,260.00
2019-01-11T07:15:07.360Z,260.00
2019-01-11T07:16:07.311Z,260.00
2019-01-11T07:17:07.307Z,260.00
2019-01-11T07:18:07.294Z,260.00
2019-01-11T07:19:07.329Z,264.00
2019-01-11T07:20:07.238Z,264.00
2019-01-11T07:21:07.262Z,264.00
2019-01-11T07:22:07.228Z,264.00
2019-01-11T07:23:07.205Z,268.00
2019-01-11T07:24:07.212Z,264.00
2019-01-11T07:25:07.212Z,264.00
2019-01-11T07:26:07.176Z,264.00
2019-01-11T07:27:07.156Z,264.00
2019-01-11T07:28:13.532Z,264.00
2019-01-11T07:29:28.635Z,268.00
2019-01-11T07:30:28.617Z,268.00
2019-01-11T07:31:28.616Z,268.00
2019-01-11T07:32:28.647Z,268.00
2019-01-11T07:33:28.571Z,272.00
2019-01-11T07:34:28.554Z,268.00
2019-01-11T07:35:28.793Z,272.00
2019-01-11T07:36:28.553Z,272.00
2019-01-11T07:37:28.526Z,272.00
2019-01-11T07:38:28.552Z,268.00
2019-01-11T07:39:28.494Z,276.00
2019-01-11T07:40:28.495Z,276.00
2019-01-11T07:41:28.501Z,276.00
2019-01-11T07:42:28.539Z,276.00
2019-01-11T07:43:28.475Z,276.00
2019-01-11T07:44:28.467Z,276.00
2019-01-11T07:45:28.427Z,280.00
2019-01-11T07:46:28.422Z,280.00
2019-01-11T07:47:28.429Z,280.00
2019-01-11T07:48:28.480Z,284.00
2019-01-11T07:49:28.414Z,280.00
2019-01-11T07:50:28.492Z,284.00
2019-01-11T07:51:28.382Z,284.00
2019-01-11T07:52:28.353Z,284.00
2019-01-11T07:53:28.340Z,284.00
2019-01-11T07:54:28.388Z,288.00
2019-01-11T07:55:28.393Z,288.00
2019-01-11T07:56:28.358Z,288.00
2019-01-11T07:57:28.418Z,288.00
2019-01-11T07:58:28.327Z,288.00
2019-01-11T07:59:28.365Z,292.00
2019-01-11T08:00:33.833Z,292.00
2019-01-11T08:01:28.283Z,292.00
2019-01-11T08:02:28.286Z,292.00
2019-01-11T08:03:28.265Z,292.00
2019-01-11T08:04:28.388Z,296.00
2019-01-11T08:05:28.232Z,296.00
2019-01-11T08:06:28.272Z,296.00
2019-01-11T08:08:55.184Z,292.00
